sensor_id;sensor_type;location;lat;lon;timestamp;P1;durP1;ratioP1;P2;durP2;ratioP2
61675;SDS011;47574;52.090;5.244;2022-12-29T00:01:34;2.5;;;2.31;;
61675;SDS011;47574;52.090;5.244;2022-12-29T00:03:12;3.2;;;2.21;;
61675;SDS011;47574;52.090;5.244;2022-12-29T00:06:26;2.6;;;2.0;;
61675;SDS011;47574;52.090;5.244;2022-12-29T00:08:03;2.4;;;2.0;;
61675;SDS011;47574;52.090;5.244;2022-12-29T00:09:39;2.31;;;2.1;;
61675;SDS011;47574;52.090;5.244;2022-12-29T00:12:55;2.7;;;2.1;;
61675;SDS011;47574;52.090;5.244;2022-12-29T00:14:31;3.1;;;2.31;;
61675;SDS011;47574;52.090;5.244;2022-12-29T00:16:08;1.8;;;1.7;;
61675;SDS011;47574;52.090;5.244;2022-12-29T00:17:44;2.0;;;1.8;;
61675;SDS011;47574;52.090;5.244;2022-12-29T00:20:56;1.9;;;1.7;;
61675;SDS011;47574;52.090;5.244;2022-12-29T00:22:32;3.0;;;2.0;;
61675;SDS011;47574;52.090;5.244;2022-12-29T00:24:12;1.8;;;1.7;;
61675;SDS011;47574;52.090;5.244;2022-12-29T00:27:26;1.9;;;1.8;;
61675;SDS011;47574;52.090;5.244;2022-12-29T00:29:03;1.9;;;1.8;;
61675;SDS011;47574;52.090;5.244;2022-12-29T00:30:39;2.0;;;1.9;;
61675;SDS011;47574;52.090;5.244;2022-12-29T00:32:16;2.31;;;2.1;;
61675;SDS011;47574;52.090;5.244;2022-12-29T00:35:29;1.8;;;1.7;;
61675;SDS011;47574;52.090;5.244;2022-12-29T00:37:12;1.8;;;1.7;;
61675;SDS011;47574;52.090;5.244;2022-12-29T00:38:49;3.4;;;1.9;;
61675;SDS011;47574;52.090;5.244;2022-12-29T00:42:07;1.7;;;1.6;;
61675;SDS011;47574;52.090;5.244;2022-12-29T00:43:45;2.0;;;1.8;;
61675;SDS011;47574;52.090;5.244;2022-12-29T00:45:21;2.31;;;1.8;;
61675;SDS011;47574;52.090;5.244;2022-12-29T00:46:57;1.9;;;1.8;;
61675;SDS011;47574;52.090;5.244;2022-12-29T00:50:09;2.0;;;1.8;;
61675;SDS011;47574;52.090;5.244;2022-12-29T00:51:46;2.21;;;2.0;;
61675;SDS011;47574;52.090;5.244;2022-12-29T00:53:23;3.3;;;1.8;;
61675;SDS011;47574;52.090;5.244;2022-12-29T00:56:35;2.31;;;1.7;;
61675;SDS011;47574;52.090;5.244;2022-12-29T00:58:13;1.7;;;1.6;;
61675;SDS011;47574;52.090;5.244;2022-12-29T00:59:49;4.2;;;1.7;;
61675;SDS011;47574;52.090;5.244;2022-12-29T01:03:02;4.2;;;1.7;;
61675;SDS011;47574;52.090;5.244;2022-12-29T01:04:38;2.8;;;1.6;;
61675;SDS011;47574;52.090;5.244;2022-12-29T01:06:14;2.8;;;1.5;;
61675;SDS011;47574;52.090;5.244;2022-12-29T01:07:51;2.5;;;1.4;;
61675;SDS011;47574;52.090;5.244;2022-12-29T01:11:03;2.4;;;1.3;;
61675;SDS011;47574;52.090;5.244;2022-12-29T01:12:42;2.4;;;1.4;;
61675;SDS011;47574;52.090;5.244;2022-12-29T01:14:18;1.9;;;1.6;;
61675;SDS011;47574;52.090;5.244;2022-12-29T01:17:32;2.7;;;1.7;;
61675;SDS011;47574;52.090;5.244;2022-12-29T01:19:10;4.91;;;1.7;;
61675;SDS011;47574;52.090;5.244;2022-12-29T01:20:47;1.3;;;1.2;;
61675;SDS011;47574;52.090;5.244;2022-12-29T01:24:00;2.7;;;1.5;;
61675;SDS011;47574;52.090;5.244;2022-12-29T01:25:36;1.9;;;1.5;;
61675;SDS011;47574;52.090;5.244;2022-12-29T01:27:14;1.7;;;1.4;;
61675;SDS011;47574;52.090;5.244;2022-12-29T01:28:50;2.7;;;1.3;;
61675;SDS011;47574;52.090;5.244;2022-12-29T01:32:02;2.4;;;1.4;;
61675;SDS011;47574;52.090;5.244;2022-12-29T01:33:40;1.7;;;1.5;;
61675;SDS011;47574;52.090;5.244;2022-12-29T01:35:17;2.1;;;1.7;;
61675;SDS011;47574;52.090;5.244;2022-12-29T01:38:31;2.7;;;1.2;;
61675;SDS011;47574;52.090;5.244;2022-12-29T01:40:09;1.5;;;1.4;;
61675;SDS011;47574;52.090;5.244;2022-12-29T01:41:46;1.3;;;1.2;;
61675;SDS011;47574;52.090;5.244;2022-12-29T01:43:37;1.5;;;1.3;;
61675;SDS011;47574;52.090;5.244;2022-12-29T01:46:54;2.0;;;1.4;;
61675;SDS011;47574;52.090;5.244;2022-12-29T01:48:30;1.8;;;1.7;;
61675;SDS011;47574;52.090;5.244;2022-12-29T01:50:08;1.4;;;1.3;;
61675;SDS011;47574;52.090;5.244;2022-12-29T01:51:51;2.21;;;1.3;;
61675;SDS011;47574;52.090;5.244;2022-12-29T01:55:12;1.4;;;1.3;;
61675;SDS011;47574;52.090;5.244;2022-12-29T01:56:49;2.9;;;1.3;;
61675;SDS011;47574;52.090;5.244;2022-12-29T01:58:28;1.4;;;1.2;;
61675;SDS011;47574;52.090;5.244;2022-12-29T02:00:10;1.5;;;1.4;;
61675;SDS011;47574;52.090;5.244;2022-12-29T02:03:26;1.6;;;1.4;;
61675;SDS011;47574;52.090;5.244;2022-12-29T02:05:07;1.6;;;1.4;;
61675;SDS011;47574;52.090;5.244;2022-12-29T02:06:51;1.5;;;1.2;;
61675;SDS011;47574;52.090;5.244;2022-12-29T02:08:32;1.4;;;1.11;;
61675;SDS011;47574;52.090;5.244;2022-12-29T02:11:44;1.3;;;1.2;;
61675;SDS011;47574;52.090;5.244;2022-12-29T02:13:23;1.4;;;1.3;;
61675;SDS011;47574;52.090;5.244;2022-12-29T02:15:00;1.4;;;1.3;;
61675;SDS011;47574;52.090;5.244;2022-12-29T02:18:37;1.6;;;1.2;;
61675;SDS011;47574;52.090;5.244;2022-12-29T02:20:47;2.1;;;1.2;;
61675;SDS011;47574;52.090;5.244;2022-12-29T02:25:12;1.0;;;0.9;;
61675;SDS011;47574;52.090;5.244;2022-12-29T02:27:23;1.6;;;1.2;;
61675;SDS011;47574;52.090;5.244;2022-12-29T02:30:52;2.5;;;1.2;;
61675;SDS011;47574;52.090;5.244;2022-12-29T02:32:41;2.31;;;1.2;;
61675;SDS011;47574;52.090;5.244;2022-12-29T02:34:27;1.9;;;1.0;;
61675;SDS011;47574;52.090;5.244;2022-12-29T02:36:20;1.8;;;1.0;;
61675;SDS011;47574;52.090;5.244;2022-12-29T02:38:09;3.5;;;1.2;;
61675;SDS011;47574;52.090;5.244;2022-12-29T02:39:56;2.6;;;1.11;;
61675;SDS011;47574;52.090;5.244;2022-12-29T02:43:40;3.2;;;1.0;;
61675;SDS011;47574;52.090;5.244;2022-12-29T02:45:30;3.3;;;0.9;;
61675;SDS011;47574;52.090;5.244;2022-12-29T02:47:15;2.6;;;0.9;;
61675;SDS011;47574;52.090;5.244;2022-12-29T02:49:01;2.21;;;0.9;;
61675;SDS011;47574;52.090;5.244;2022-12-29T02:50:47;4.0;;;1.3;;
61675;SDS011;47574;52.090;5.244;2022-12-29T02:52:34;4.41;;;1.3;;
61675;SDS011;47574;52.090;5.244;2022-12-29T02:55:53;4.3;;;0.9;;
61675;SDS011;47574;52.090;5.244;2022-12-29T02:57:30;3.9;;;1.0;;
61675;SDS011;47574;52.090;5.244;2022-12-29T02:59:08;3.7;;;1.11;;
61675;SDS011;47574;52.090;5.244;2022-12-29T03:03:00;2.4;;;0.7;;
61675;SDS011;47574;52.090;5.244;2022-12-29T03:04:53;2.6;;;0.8;;
61675;SDS011;47574;52.090;5.244;2022-12-29T03:06:54;3.3;;;0.7;;
61675;SDS011;47574;52.090;5.244;2022-12-29T03:08:40;1.9;;;0.6;;
61675;SDS011;47574;52.090;5.244;2022-12-29T03:10:28;1.11;;;0.7;;
61675;SDS011;47574;52.090;5.244;2022-12-29T03:12:18;3.0;;;0.8;;
61675;SDS011;47574;52.090;5.244;2022-12-29T03:15:54;1.6;;;0.6;;
61675;SDS011;47574;52.090;5.244;2022-12-29T03:17:40;1.3;;;0.6;;
61675;SDS011;47574;52.090;5.244;2022-12-29T03:21:08;2.4;;;0.7;;
61675;SDS011;47574;52.090;5.244;2022-12-29T03:22:50;2.0;;;0.8;;
61675;SDS011;47574;52.090;5.244;2022-12-29T03:24:34;1.5;;;0.7;;
61675;SDS011;47574;52.090;5.244;2022-12-29T03:26:26;2.5;;;0.8;;
61675;SDS011;47574;52.090;5.244;2022-12-29T03:28:05;2.9;;;0.8;;
61675;SDS011;47574;52.090;5.244;2022-12-29T03:31:25;3.0;;;0.7;;
61675;SDS011;47574;52.090;5.244;2022-12-29T03:33:03;2.4;;;0.7;;
61675;SDS011;47574;52.090;5.244;2022-12-29T03:34:45;2.21;;;0.6;;
61675;SDS011;47574;52.090;5.244;2022-12-29T03:36:26;2.31;;;0.8;;
61675;SDS011;47574;52.090;5.244;2022-12-29T03:39:54;1.5;;;0.7;;
61675;SDS011;47574;52.090;5.244;2022-12-29T03:41:31;3.2;;;1.0;;
61675;SDS011;47574;52.090;5.244;2022-12-29T03:43:09;3.4;;;0.8;;
61675;SDS011;47574;52.090;5.244;2022-12-29T03:44:48;4.61;;;1.0;;
61675;SDS011;47574;52.090;5.244;2022-12-29T03:48:06;2.9;;;0.7;;
61675;SDS011;47574;52.090;5.244;2022-12-29T03:49:42;3.5;;;0.9;;
61675;SDS011;47574;52.090;5.244;2022-12-29T03:51:19;3.5;;;1.0;;
61675;SDS011;47574;52.090;5.244;2022-12-29T03:54:35;3.9;;;0.9;;
61675;SDS011;47574;52.090;5.244;2022-12-29T03:56:11;1.8;;;0.7;;
61675;SDS011;47574;52.090;5.244;2022-12-29T03:59:23;3.7;;;1.0;;
61675;SDS011;47574;52.090;5.244;2022-12-29T04:02:36;2.6;;;0.8;;
61675;SDS011;47574;52.090;5.244;2022-12-29T04:04:12;2.4;;;1.0;;
61675;SDS011;47574;52.090;5.244;2022-12-29T04:05:49;4.2;;;1.2;;
61675;SDS011;47574;52.090;5.244;2022-12-29T04:09:02;4.0;;;1.2;;
61675;SDS011;47574;52.090;5.244;2022-12-29T04:10:39;3.5;;;1.2;;
61675;SDS011;47574;52.090;5.244;2022-12-29T04:12:16;4.0;;;1.3;;
61675;SDS011;47574;52.090;5.244;2022-12-29T04:15:28;4.0;;;1.2;;
61675;SDS011;47574;52.090;5.244;2022-12-29T04:17:05;4.41;;;1.2;;
61675;SDS011;47574;52.090;5.244;2022-12-29T04:18:42;5.4;;;1.3;;
61675;SDS011;47574;52.090;5.244;2022-12-29T04:20:19;3.7;;;1.0;;
61675;SDS011;47574;52.090;5.244;2022-12-29T04:23:32;4.7;;;1.2;;
61675;SDS011;47574;52.090;5.244;2022-12-29T04:25:10;7.1;;;1.2;;
61675;SDS011;47574;52.090;5.244;2022-12-29T04:26:47;5.3;;;1.6;;
61675;SDS011;47574;52.090;5.244;2022-12-29T04:30:00;8.4;;;1.6;;
61675;SDS011;47574;52.090;5.244;2022-12-29T04:31:36;6.4;;;1.4;;
61675;SDS011;47574;52.090;5.244;2022-12-29T04:33:12;5.7;;;1.5;;
61675;SDS011;47574;52.090;5.244;2022-12-29T04:36:26;6.8;;;1.5;;
61675;SDS011;47574;52.090;5.244;2022-12-29T04:38:02;5.9;;;1.6;;
61675;SDS011;47574;52.090;5.244;2022-12-29T04:39:39;8.1;;;1.6;;
61675;SDS011;47574;52.090;5.244;2022-12-29T04:41:15;6.4;;;1.3;;
61675;SDS011;47574;52.090;5.244;2022-12-29T04:44:28;8.4;;;1.7;;
61675;SDS011;47574;52.090;5.244;2022-12-29T04:46:04;8.1;;;1.6;;
61675;SDS011;47574;52.090;5.244;2022-12-29T04:47:41;7.8;;;1.7;;
61675;SDS011;47574;52.090;5.244;2022-12-29T04:50:53;6.9;;;1.7;;
61675;SDS011;47574;52.090;5.244;2022-12-29T04:52:29;6.5;;;1.6;;
61675;SDS011;47574;52.090;5.244;2022-12-29T04:54:07;8.1;;;1.7;;
61675;SDS011;47574;52.090;5.244;2022-12-29T04:57:24;6.8;;;1.6;;
61675;SDS011;47574;52.090;5.244;2022-12-29T04:59:01;8.81;;;1.6;;
61675;SDS011;47574;52.090;5.244;2022-12-29T05:00:38;7.6;;;1.8;;
61675;SDS011;47574;52.090;5.244;2022-12-29T05:02:15;6.7;;;1.6;;
61675;SDS011;47574;52.090;5.244;2022-12-29T05:05:27;11.9;;;2.0;;
61675;SDS011;47574;52.090;5.244;2022-12-29T05:07:04;8.2;;;2.0;;
61675;SDS011;47574;52.090;5.244;2022-12-29T05:08:41;11.0;;;2.0;;
61675;SDS011;47574;52.090;5.244;2022-12-29T05:11:54;10.3;;;1.9;;
61675;SDS011;47574;52.090;5.244;2022-12-29T05:15:07;8.2;;;1.7;;
61675;SDS011;47574;52.090;5.244;2022-12-29T05:18:21;7.9;;;1.7;;
61675;SDS011;47574;52.090;5.244;2022-12-29T05:19:58;11.3;;;2.0;;
61675;SDS011;47574;52.090;5.244;2022-12-29T05:21:35;11.4;;;2.4;;
61675;SDS011;47574;52.090;5.244;2022-12-29T05:23:12;8.5;;;1.8;;
61675;SDS011;47574;52.090;5.244;2022-12-29T05:26:25;11.6;;;2.1;;
61675;SDS011;47574;52.090;5.244;2022-12-29T05:28:01;9.5;;;1.9;;
61675;SDS011;47574;52.090;5.244;2022-12-29T05:29:38;10.3;;;2.0;;
61675;SDS011;47574;52.090;5.244;2022-12-29T05:32:51;8.71;;;2.1;;
61675;SDS011;47574;52.090;5.244;2022-12-29T05:34:28;10.7;;;2.0;;
61675;SDS011;47574;52.090;5.244;2022-12-29T05:36:06;10.4;;;2.0;;
61675;SDS011;47574;52.090;5.244;2022-12-29T05:37:44;10.0;;;2.5;;
61675;SDS011;47574;52.090;5.244;2022-12-29T05:40:57;10.0;;;2.5;;
61675;SDS011;47574;52.090;5.244;2022-12-29T05:42:33;13.0;;;2.21;;
61675;SDS011;47574;52.090;5.244;2022-12-29T05:44:09;10.3;;;2.1;;
61675;SDS011;47574;52.090;5.244;2022-12-29T05:47:24;9.5;;;2.5;;
61675;SDS011;47574;52.090;5.244;2022-12-29T05:49:00;9.31;;;2.31;;
61675;SDS011;47574;52.090;5.244;2022-12-29T05:50:37;8.71;;;1.9;;
61675;SDS011;47574;52.090;5.244;2022-12-29T05:53:49;8.9;;;2.21;;
61675;SDS011;47574;52.090;5.244;2022-12-29T05:55:26;10.8;;;2.7;;
61675;SDS011;47574;52.090;5.244;2022-12-29T05:57:03;9.5;;;2.1;;
61675;SDS011;47574;52.090;5.244;2022-12-29T06:00:16;10.21;;;2.21;;
61675;SDS011;47574;52.090;5.244;2022-12-29T06:01:52;13.0;;;2.31;;
61675;SDS011;47574;52.090;5.244;2022-12-29T06:03:28;7.8;;;2.1;;
61675;SDS011;47574;52.090;5.244;2022-12-29T06:05:04;9.9;;;2.1;;
61675;SDS011;47574;52.090;5.244;2022-12-29T06:08:19;11.4;;;2.4;;
61675;SDS011;47574;52.090;5.244;2022-12-29T06:09:55;12.7;;;2.21;;
61675;SDS011;47574;52.090;5.244;2022-12-29T06:11:32;11.3;;;2.31;;
61675;SDS011;47574;52.090;5.244;2022-12-29T06:14:45;9.9;;;2.31;;
61675;SDS011;47574;52.090;5.244;2022-12-29T06:16:22;13.4;;;2.31;;
61675;SDS011;47574;52.090;5.244;2022-12-29T06:17:58;14.3;;;2.6;;
61675;SDS011;47574;52.090;5.244;2022-12-29T06:19:35;11.8;;;2.8;;
61675;SDS011;47574;52.090;5.244;2022-12-29T06:22:48;14.2;;;2.5;;
61675;SDS011;47574;52.090;5.244;2022-12-29T06:24:25;16.8;;;2.9;;
61675;SDS011;47574;52.090;5.244;2022-12-29T06:26:01;11.1;;;2.5;;
61675;SDS011;47574;52.090;5.244;2022-12-29T06:29:17;12.2;;;2.31;;
61675;SDS011;47574;52.090;5.244;2022-12-29T06:30:53;15.0;;;2.9;;
61675;SDS011;47574;52.090;5.244;2022-12-29T06:32:29;14.2;;;2.7;;
61675;SDS011;47574;52.090;5.244;2022-12-29T06:35:43;12.8;;;2.4;;
61675;SDS011;47574;52.090;5.244;2022-12-29T06:37:20;14.5;;;3.2;;
61675;SDS011;47574;52.090;5.244;2022-12-29T06:38:56;16.3;;;2.9;;
61675;SDS011;47574;52.090;5.244;2022-12-29T06:40:33;14.5;;;2.8;;
61675;SDS011;47574;52.090;5.244;2022-12-29T06:43:46;10.6;;;2.5;;
61675;SDS011;47574;52.090;5.244;2022-12-29T06:45:22;12.4;;;2.21;;
61675;SDS011;47574;52.090;5.244;2022-12-29T06:47:00;11.5;;;2.6;;
61675;SDS011;47574;52.090;5.244;2022-12-29T06:50:13;13.4;;;2.4;;
61675;SDS011;47574;52.090;5.244;2022-12-29T06:51:50;13.2;;;2.7;;
61675;SDS011;47574;52.090;5.244;2022-12-29T06:53:28;11.3;;;2.4;;
61675;SDS011;47574;52.090;5.244;2022-12-29T06:56:41;14.3;;;2.8;;
61675;SDS011;47574;52.090;5.244;2022-12-29T06:58:20;12.3;;;2.5;;
61675;SDS011;47574;52.090;5.244;2022-12-29T06:59:56;11.8;;;2.4;;
61675;SDS011;47574;52.090;5.244;2022-12-29T07:01:32;17.91;;;2.9;;
61675;SDS011;47574;52.090;5.244;2022-12-29T07:04:45;11.4;;;2.31;;
61675;SDS011;47574;52.090;5.244;2022-12-29T07:06:22;14.2;;;2.9;;
61675;SDS011;47574;52.090;5.244;2022-12-29T07:07:59;12.9;;;3.2;;
61675;SDS011;47574;52.090;5.244;2022-12-29T07:11:12;12.9;;;3.2;;
61675;SDS011;47574;52.090;5.244;2022-12-29T07:12:48;11.8;;;2.4;;
61675;SDS011;47574;52.090;5.244;2022-12-29T07:14:25;8.5;;;2.0;;
61675;SDS011;47574;52.090;5.244;2022-12-29T07:16:04;9.1;;;1.8;;
61675;SDS011;47574;52.090;5.244;2022-12-29T07:19:19;9.21;;;1.7;;
61675;SDS011;47574;52.090;5.244;2022-12-29T07:20:55;8.1;;;2.1;;
61675;SDS011;47574;52.090;5.244;2022-12-29T07:22:31;7.1;;;1.9;;
61675;SDS011;47574;52.090;5.244;2022-12-29T07:25:45;8.4;;;1.9;;
61675;SDS011;47574;52.090;5.244;2022-12-29T07:27:21;8.6;;;1.9;;
61675;SDS011;47574;52.090;5.244;2022-12-29T07:28:59;7.4;;;1.9;;
61675;SDS011;47574;52.090;5.244;2022-12-29T07:32:14;10.1;;;2.31;;
61675;SDS011;47574;52.090;5.244;2022-12-29T07:33:50;7.5;;;1.9;;
61675;SDS011;47574;52.090;5.244;2022-12-29T07:35:27;10.21;;;2.1;;
61675;SDS011;47574;52.090;5.244;2022-12-29T07:37:03;9.6;;;1.9;;
61675;SDS011;47574;52.090;5.244;2022-12-29T07:40:19;7.9;;;2.21;;
61675;SDS011;47574;52.090;5.244;2022-12-29T07:41:56;9.1;;;1.9;;
61675;SDS011;47574;52.090;5.244;2022-12-29T07:43:32;12.0;;;2.4;;
61675;SDS011;47574;52.090;5.244;2022-12-29T07:46:47;10.8;;;2.4;;
61675;SDS011;47574;52.090;5.244;2022-12-29T07:48:23;10.3;;;2.5;;
61675;SDS011;47574;52.090;5.244;2022-12-29T07:49:59;10.7;;;2.31;;
61675;SDS011;47574;52.090;5.244;2022-12-29T07:51:36;10.6;;;2.1;;
61675;SDS011;47574;52.090;5.244;2022-12-29T07:54:51;12.4;;;2.8;;
61675;SDS011;47574;52.090;5.244;2022-12-29T07:56:27;12.4;;;2.7;;
61675;SDS011;47574;52.090;5.244;2022-12-29T07:58:04;11.9;;;2.31;;
61675;SDS011;47574;52.090;5.244;2022-12-29T08:01:16;12.2;;;2.6;;
61675;SDS011;47574;52.090;5.244;2022-12-29T08:02:52;12.7;;;2.4;;
61675;SDS011;47574;52.090;5.244;2022-12-29T08:04:29;12.5;;;2.7;;
61675;SDS011;47574;52.090;5.244;2022-12-29T08:07:44;11.3;;;2.7;;
61675;SDS011;47574;52.090;5.244;2022-12-29T08:09:21;12.6;;;2.7;;
61675;SDS011;47574;52.090;5.244;2022-12-29T08:10:57;9.31;;;2.1;;
61675;SDS011;47574;52.090;5.244;2022-12-29T08:12:34;13.8;;;2.6;;
61675;SDS011;47574;52.090;5.244;2022-12-29T08:15:47;11.6;;;2.7;;
61675;SDS011;47574;52.090;5.244;2022-12-29T08:17:23;12.1;;;2.5;;
61675;SDS011;47574;52.090;5.244;2022-12-29T08:18:59;14.3;;;2.7;;
61675;SDS011;47574;52.090;5.244;2022-12-29T08:22:12;12.1;;;2.6;;
61675;SDS011;47574;52.090;5.244;2022-12-29T08:23:49;14.2;;;2.8;;
61675;SDS011;47574;52.090;5.244;2022-12-29T08:25:25;13.2;;;2.5;;
61675;SDS011;47574;52.090;5.244;2022-12-29T08:28:37;13.1;;;2.6;;
61675;SDS011;47574;52.090;5.244;2022-12-29T08:30:14;12.9;;;2.7;;
61675;SDS011;47574;52.090;5.244;2022-12-29T08:31:51;13.9;;;2.7;;
61675;SDS011;47574;52.090;5.244;2022-12-29T08:33:27;14.5;;;2.9;;
61675;SDS011;47574;52.090;5.244;2022-12-29T08:36:41;12.8;;;2.8;;
61675;SDS011;47574;52.090;5.244;2022-12-29T08:38:18;15.7;;;2.8;;
61675;SDS011;47574;52.090;5.244;2022-12-29T08:39:55;15.7;;;3.2;;
61675;SDS011;47574;52.090;5.244;2022-12-29T08:43:07;13.6;;;2.9;;
61675;SDS011;47574;52.090;5.244;2022-12-29T08:44:43;13.9;;;2.6;;
61675;SDS011;47574;52.090;5.244;2022-12-29T08:46:20;13.5;;;2.7;;
61675;SDS011;47574;52.090;5.244;2022-12-29T08:49:33;13.3;;;3.0;;
61675;SDS011;47574;52.090;5.244;2022-12-29T08:51:09;16.7;;;3.0;;
61675;SDS011;47574;52.090;5.244;2022-12-29T08:52:45;16.9;;;2.9;;
61675;SDS011;47574;52.090;5.244;2022-12-29T08:54:22;16.9;;;2.9;;
61675;SDS011;47574;52.090;5.244;2022-12-29T08:57:36;15.0;;;2.8;;
61675;SDS011;47574;52.090;5.244;2022-12-29T08:59:12;16.9;;;3.3;;
61675;SDS011;47574;52.090;5.244;2022-12-29T09:00:51;11.8;;;2.7;;
61675;SDS011;47574;52.090;5.244;2022-12-29T09:04:04;17.61;;;3.2;;
61675;SDS011;47574;52.090;5.244;2022-12-29T09:05:40;14.9;;;3.1;;
61675;SDS011;47574;52.090;5.244;2022-12-29T09:07:16;13.0;;;2.5;;
61675;SDS011;47574;52.090;5.244;2022-12-29T09:10:29;13.5;;;2.9;;
61675;SDS011;47574;52.090;5.244;2022-12-29T09:12:06;14.1;;;3.0;;
61675;SDS011;47574;52.090;5.244;2022-12-29T09:13:43;12.7;;;2.9;;
61675;SDS011;47574;52.090;5.244;2022-12-29T09:15:20;16.11;;;3.1;;
61675;SDS011;47574;52.090;5.244;2022-12-29T09:18:32;12.3;;;2.7;;
61675;SDS011;47574;52.090;5.244;2022-12-29T09:20:09;12.7;;;2.6;;
61675;SDS011;47574;52.090;5.244;2022-12-29T09:21:46;16.7;;;2.9;;
61675;SDS011;47574;52.090;5.244;2022-12-29T09:25:00;14.5;;;3.0;;
61675;SDS011;47574;52.090;5.244;2022-12-29T09:26:36;11.9;;;2.5;;
61675;SDS011;47574;52.090;5.244;2022-12-29T09:28:12;11.8;;;2.5;;
61675;SDS011;47574;52.090;5.244;2022-12-29T09:31:25;11.4;;;2.5;;
61675;SDS011;47574;52.090;5.244;2022-12-29T09:33:02;12.5;;;2.8;;
61675;SDS011;47574;52.090;5.244;2022-12-29T09:34:39;10.8;;;2.7;;
61675;SDS011;47574;52.090;5.244;2022-12-29T09:36:15;13.2;;;2.6;;
61675;SDS011;47574;52.090;5.244;2022-12-29T09:39:28;14.1;;;2.8;;
61675;SDS011;47574;52.090;5.244;2022-12-29T09:41:05;12.0;;;2.8;;
61675;SDS011;47574;52.090;5.244;2022-12-29T09:42:53;10.1;;;2.5;;
61675;SDS011;47574;52.090;5.244;2022-12-29T09:44:47;11.4;;;2.4;;
61675;SDS011;47574;52.090;5.244;2022-12-29T09:48:18;12.3;;;2.4;;
61675;SDS011;47574;52.090;5.244;2022-12-29T09:50:00;21.5;;;3.6;;
61675;SDS011;47574;52.090;5.244;2022-12-29T09:51:41;9.1;;;2.31;;
61675;SDS011;47574;52.090;5.244;2022-12-29T09:53:24;10.8;;;2.4;;
61675;SDS011;47574;52.090;5.244;2022-12-29T09:55:08;9.21;;;2.1;;
61675;SDS011;47574;52.090;5.244;2022-12-29T09:58:30;10.9;;;3.0;;
61675;SDS011;47574;52.090;5.244;2022-12-29T10:01:53;10.1;;;2.31;;
61675;SDS011;47574;52.090;5.244;2022-12-29T10:03:36;12.2;;;2.21;;
61675;SDS011;47574;52.090;5.244;2022-12-29T10:07:13;12.1;;;3.1;;
61675;SDS011;47574;52.090;5.244;2022-12-29T10:09:01;10.6;;;2.5;;
61675;SDS011;47574;52.090;5.244;2022-12-29T10:10:45;8.31;;;2.0;;
61675;SDS011;47574;52.090;5.244;2022-12-29T10:12:31;10.4;;;2.31;;
61675;SDS011;47574;52.090;5.244;2022-12-29T10:14:29;13.0;;;2.7;;
61675;SDS011;47574;52.090;5.244;2022-12-29T10:16:18;11.4;;;2.4;;
61675;SDS011;47574;52.090;5.244;2022-12-29T10:19:57;10.6;;;2.31;;
61675;SDS011;47574;52.090;5.244;2022-12-29T10:21:56;10.6;;;2.4;;
61675;SDS011;47574;52.090;5.244;2022-12-29T10:23:46;8.2;;;1.9;;
61675;SDS011;47574;52.090;5.244;2022-12-29T10:25:28;8.1;;;2.21;;
61675;SDS011;47574;52.090;5.244;2022-12-29T10:27:10;10.3;;;2.1;;
61675;SDS011;47574;52.090;5.244;2022-12-29T10:28:49;9.9;;;2.0;;
61675;SDS011;47574;52.090;5.244;2022-12-29T10:32:12;8.6;;;2.1;;
61675;SDS011;47574;52.090;5.244;2022-12-29T10:34:06;10.0;;;2.31;;
61675;SDS011;47574;52.090;5.244;2022-12-29T10:35:55;10.6;;;2.5;;
61675;SDS011;47574;52.090;5.244;2022-12-29T10:39:19;11.7;;;2.8;;
61675;SDS011;47574;52.090;5.244;2022-12-29T10:41:05;17.41;;;2.7;;
61675;SDS011;47574;52.090;5.244;2022-12-29T10:46:08;13.1;;;2.9;;
61675;SDS011;47574;52.090;5.244;2022-12-29T10:47:51;11.5;;;2.6;;
61675;SDS011;47574;52.090;5.244;2022-12-29T10:51:18;16.8;;;3.8;;
61675;SDS011;47574;52.090;5.244;2022-12-29T10:53:02;19.2;;;3.3;;
61675;SDS011;47574;52.090;5.244;2022-12-29T10:54:42;17.2;;;3.7;;
61675;SDS011;47574;52.090;5.244;2022-12-29T10:56:28;16.8;;;3.6;;
61675;SDS011;47574;52.090;5.244;2022-12-29T10:58:10;17.5;;;4.61;;
61675;SDS011;47574;52.090;5.244;2022-12-29T11:01:28;19.11;;;4.8;;
61675;SDS011;47574;52.090;5.244;2022-12-29T11:03:21;21.1;;;5.0;;
61675;SDS011;47574;52.090;5.244;2022-12-29T11:05:23;20.7;;;4.8;;
61675;SDS011;47574;52.090;5.244;2022-12-29T11:07:08;19.91;;;4.3;;
61675;SDS011;47574;52.090;5.244;2022-12-29T11:08:50;21.8;;;5.8;;
61675;SDS011;47574;52.090;5.244;2022-12-29T11:10:34;19.7;;;4.5;;
61675;SDS011;47574;52.090;5.244;2022-12-29T11:13:58;25.3;;;5.6;;
61675;SDS011;47574;52.090;5.244;2022-12-29T11:15:38;21.0;;;5.7;;
61675;SDS011;47574;52.090;5.244;2022-12-29T11:17:17;25.4;;;5.2;;
61675;SDS011;47574;52.090;5.244;2022-12-29T11:20:31;20.8;;;4.91;;
61675;SDS011;47574;52.090;5.244;2022-12-29T11:22:13;23.8;;;4.91;;
61675;SDS011;47574;52.090;5.244;2022-12-29T11:25:34;24.6;;;4.7;;
61675;SDS011;47574;52.090;5.244;2022-12-29T11:30:23;18.3;;;4.3;;
61675;SDS011;47574;52.090;5.244;2022-12-29T11:32:02;21.9;;;5.4;;
61675;SDS011;47574;52.090;5.244;2022-12-29T11:33:47;21.9;;;5.4;;
61675;SDS011;47574;52.090;5.244;2022-12-29T11:37:13;23.9;;;4.8;;
61675;SDS011;47574;52.090;5.244;2022-12-29T11:38:53;16.11;;;4.1;;
61675;SDS011;47574;52.090;5.244;2022-12-29T11:40:31;19.11;;;3.7;;
61675;SDS011;47574;52.090;5.244;2022-12-29T11:42:15;17.11;;;4.0;;
61675;SDS011;47574;52.090;5.244;2022-12-29T11:43:56;18.91;;;4.2;;
61675;SDS011;47574;52.090;5.244;2022-12-29T11:47:13;19.7;;;4.3;;
61675;SDS011;47574;52.090;5.244;2022-12-29T11:49:00;22.5;;;4.41;;
61675;SDS011;47574;52.090;5.244;2022-12-29T11:50:39;21.3;;;4.5;;
61675;SDS011;47574;52.090;5.244;2022-12-29T11:52:20;20.8;;;4.5;;
61675;SDS011;47574;52.090;5.244;2022-12-29T11:55:39;22.1;;;4.91;;
61675;SDS011;47574;52.090;5.244;2022-12-29T11:57:16;22.9;;;4.61;;
61675;SDS011;47574;52.090;5.244;2022-12-29T11:58:55;26.7;;;5.2;;
61675;SDS011;47574;52.090;5.244;2022-12-29T12:02:21;27.7;;;5.11;;
61675;SDS011;47574;52.090;5.244;2022-12-29T12:04:54;25.4;;;5.11;;
61675;SDS011;47574;52.090;5.244;2022-12-29T12:08:34;27.3;;;5.7;;
61675;SDS011;47574;52.090;5.244;2022-12-29T12:10:16;23.0;;;5.11;;
61675;SDS011;47574;52.090;5.244;2022-12-29T12:11:57;24.0;;;5.2;;
61675;SDS011;47574;52.090;5.244;2022-12-29T12:13:39;22.7;;;5.0;;
61675;SDS011;47574;52.090;5.244;2022-12-29T12:15:25;27.8;;;5.2;;
61675;SDS011;47574;52.090;5.244;2022-12-29T12:18:51;23.8;;;5.6;;
61675;SDS011;47574;52.090;5.244;2022-12-29T12:20:36;23.6;;;4.5;;
61675;SDS011;47574;52.090;5.244;2022-12-29T12:22:19;24.9;;;4.61;;
61675;SDS011;47574;52.090;5.244;2022-12-29T12:24:13;21.1;;;4.3;;
61675;SDS011;47574;52.090;5.244;2022-12-29T12:26:11;21.8;;;4.61;;
61675;SDS011;47574;52.090;5.244;2022-12-29T12:27:56;27.5;;;4.8;;
61675;SDS011;47574;52.090;5.244;2022-12-29T12:31:25;23.6;;;5.0;;
61675;SDS011;47574;52.090;5.244;2022-12-29T12:33:22;22.5;;;4.91;;
61675;SDS011;47574;52.090;5.244;2022-12-29T12:35:05;26.5;;;5.11;;
61675;SDS011;47574;52.090;5.244;2022-12-29T12:38:43;24.7;;;4.91;;
61675;SDS011;47574;52.090;5.244;2022-12-29T12:40:34;21.2;;;5.2;;
61675;SDS011;47574;52.090;5.244;2022-12-29T12:44:12;21.1;;;4.7;;
61675;SDS011;47574;52.090;5.244;2022-12-29T12:46:01;24.8;;;4.5;;
61675;SDS011;47574;52.090;5.244;2022-12-29T12:47:56;22.4;;;5.4;;
61675;SDS011;47574;52.090;5.244;2022-12-29T12:49:54;19.41;;;4.41;;
61675;SDS011;47574;52.090;5.244;2022-12-29T12:52:13;20.2;;;4.1;;
61675;SDS011;47574;52.090;5.244;2022-12-29T12:54:14;19.11;;;4.41;;
61675;SDS011;47574;52.090;5.244;2022-12-29T12:56:11;21.4;;;4.1;;
61675;SDS011;47574;52.090;5.244;2022-12-29T12:58:52;13.2;;;3.6;;
61675;SDS011;47574;52.090;5.244;2022-12-29T13:00:37;19.2;;;4.0;;
61675;SDS011;47574;52.090;5.244;2022-12-29T13:02:29;21.0;;;4.5;;
61675;SDS011;47574;52.090;5.244;2022-12-29T13:04:52;21.8;;;4.1;;
61675;SDS011;47574;52.090;5.244;2022-12-29T13:08:42;23.7;;;4.5;;
61675;SDS011;47574;52.090;5.244;2022-12-29T13:10:39;21.7;;;4.7;;
61675;SDS011;47574;52.090;5.244;2022-12-29T13:12:20;23.6;;;4.8;;
61675;SDS011;47574;52.090;5.244;2022-12-29T13:14:12;18.41;;;4.2;;
61675;SDS011;47574;52.090;5.244;2022-12-29T13:16:05;17.3;;;4.0;;
61675;SDS011;47574;52.090;5.244;2022-12-29T13:19:40;20.11;;;4.3;;